createdAt,value
2022-12-09T00:01:14.136Z,100.00
2022-12-09T00:03:41.947Z,100.00
2022-12-09T00:06:11.892Z,100.00
2022-12-09T00:08:38.718Z,100.00
2022-12-09T00:11:06.646Z,100.00
2022-12-09T00:13:34.033Z,100.00
2022-12-09T00:16:05.200Z,100.00
2022-12-09T00:18:32.879Z,100.00
2022-12-09T00:20:59.741Z,100.00
2022-12-09T00:23:26.641Z,100.00
2022-12-09T00:25:57.333Z,100.00
2022-12-09T00:28:24.027Z,100.00
2022-12-09T00:30:50.825Z,100.00
2022-12-09T00:33:17.840Z,100.00
2022-12-09T00:35:44.549Z,100.00
2022-12-09T00:38:11.181Z,100.00
2022-12-09T00:40:37.973Z,100.00
2022-12-09T00:43:04.694Z,100.00
2022-12-09T00:45:31.334Z,100.00
2022-12-09T00:47:58.019Z,100.00
2022-12-09T00:50:24.662Z,100.00
2022-12-09T00:52:51.289Z,100.00
2022-12-09T00:55:18.147Z,100.00
2022-12-09T00:57:45.089Z,100.00
2022-12-09T01:00:12.450Z,100.00
2022-12-09T01:02:39.374Z,100.00
2022-12-09T01:05:06.629Z,100.00
2022-12-09T01:07:33.527Z,100.00
2022-12-09T01:10:00.479Z,100.00
2022-12-09T01:12:27.256Z,100.00
2022-12-09T01:14:54.096Z,100.00
2022-12-09T01:17:21.126Z,100.00
2022-12-09T01:19:47.878Z,100.00
2022-12-09T01:22:14.538Z,100.00
2022-12-09T01:24:41.198Z,100.00
2022-12-09T01:27:08.209Z,100.00
2022-12-09T01:29:35.605Z,100.00
2022-12-09T01:32:02.752Z,100.00
2022-12-09T01:34:29.502Z,100.00
2022-12-09T01:36:56.290Z,100.00
2022-12-09T01:39:23.299Z,100.00
2022-12-09T01:41:51.461Z,100.00
2022-12-09T01:44:24.260Z,100.00
2022-12-09T01:46:55.870Z,100.00
2022-12-09T01:49:27.716Z,100.00
2022-12-09T01:52:03.933Z,100.00
2022-12-09T01:54:32.049Z,100.00
2022-12-09T01:56:59.149Z,100.00
2022-12-09T01:59:27.734Z,100.00
2022-12-09T02:01:59.268Z,100.00
2022-12-09T02:04:29.007Z,100.00
2022-12-09T02:06:58.531Z,100.00
2022-12-09T02:09:25.624Z,100.00
2022-12-09T02:12:03.520Z,100.00
2022-12-09T02:14:54.901Z,100.00
2022-12-09T02:17:32.451Z,100.00
2022-12-09T02:20:13.170Z,100.00
2022-12-09T02:22:58.327Z,100.00
2022-12-09T02:25:33.790Z,100.00
2022-12-09T02:28:12.927Z,100.00
2022-12-09T02:31:02.992Z,100.00
2022-12-09T02:33:45.651Z,100.00
2022-12-09T02:36:16.822Z,100.00
2022-12-09T02:38:44.416Z,100.00
2022-12-09T02:41:25.733Z,100.00
2022-12-09T02:43:59.110Z,100.00
2022-12-09T02:46:27.895Z,100.00
2022-12-09T02:48:57.220Z,100.00
2022-12-09T02:51:31.661Z,100.00
2022-12-09T02:54:04.666Z,100.00
2022-12-09T02:56:33.069Z,100.00
2022-12-09T02:58:59.744Z,100.00
2022-12-09T03:01:49.530Z,100.00
2022-12-09T03:04:26.321Z,100.00
2022-12-09T03:06:53.812Z,100.00
2022-12-09T03:09:27.412Z,100.00
2022-12-09T03:11:56.591Z,100.00
2022-12-09T03:14:30.161Z,100.00
2022-12-09T03:17:08.104Z,100.00
2022-12-09T03:19:42.485Z,100.00
2022-12-09T03:22:14.303Z,100.00
2022-12-09T03:24:48.604Z,100.00
2022-12-09T03:27:20.860Z,100.00
2022-12-09T03:29:49.859Z,100.00
2022-12-09T03:32:19.823Z,100.00
2022-12-09T03:34:50.365Z,100.00
2022-12-09T03:37:20.176Z,100.00
2022-12-09T03:39:49.560Z,100.00
2022-12-09T03:42:21.385Z,100.00
2022-12-09T03:45:06.860Z,100.00
2022-12-09T03:47:33.734Z,100.00
2022-12-09T03:50:00.844Z,100.00
2022-12-09T03:52:37.388Z,100.00
2022-12-09T03:55:23.938Z,100.00
2022-12-09T03:57:55.174Z,100.00
2022-12-09T04:00:21.944Z,100.00
2022-12-09T04:02:49.020Z,100.00
2022-12-09T04:05:16.210Z,100.00
2022-12-09T04:07:43.433Z,100.00
2022-12-09T04:10:11.352Z,100.00
2022-12-09T04:12:40.266Z,100.00
2022-12-09T04:15:07.564Z,100.00
2022-12-09T04:17:34.324Z,100.00
2022-12-09T04:20:01.567Z,100.00
2022-12-09T04:22:30.044Z,100.00
2022-12-09T04:24:56.798Z,100.00
2022-12-09T04:27:23.453Z,100.00
2022-12-09T04:29:50.190Z,100.00
2022-12-09T04:32:16.903Z,100.00
2022-12-09T04:34:43.589Z,100.00
2022-12-09T04:37:10.598Z,100.00
2022-12-09T04:39:37.420Z,100.00
2022-12-09T04:42:04.131Z,100.00
2022-12-09T04:44:31.026Z,100.00
2022-12-09T04:46:57.803Z,100.00
2022-12-09T04:49:25.014Z,100.00
2022-12-09T04:51:51.677Z,100.00
2022-12-09T04:54:18.546Z,100.00
2022-12-09T04:56:45.587Z,100.00
2022-12-09T04:59:12.248Z,100.00
2022-12-09T05:01:39.270Z,100.00
2022-12-09T05:04:06.462Z,100.00
2022-12-09T05:06:33.731Z,100.00
2022-12-09T05:09:01.303Z,100.00
2022-12-09T05:11:28.275Z,100.00
2022-12-09T05:13:55.392Z,100.00
2022-12-09T05:16:22.764Z,100.00
2022-12-09T05:18:50.167Z,100.00
2022-12-09T05:21:20.342Z,100.00
2022-12-09T05:23:48.700Z,100.00
2022-12-09T05:26:17.942Z,100.00
2022-12-09T05:28:45.594Z,100.00
2022-12-09T05:31:15.615Z,100.00
2022-12-09T05:33:44.102Z,100.00
2022-12-09T05:36:12.483Z,100.00
2022-12-09T05:38:39.924Z,100.00
2022-12-09T05:41:07.285Z,100.00
2022-12-09T05:43:35.100Z,100.00
2022-12-09T05:46:02.902Z,100.00
2022-12-09T05:48:30.316Z,100.00
2022-12-09T05:51:00.629Z,100.00
2022-12-09T05:53:27.797Z,100.00
2022-12-09T05:55:54.946Z,100.00
2022-12-09T05:58:22.270Z,100.00
2022-12-09T06:00:49.663Z,100.00
2022-12-09T06:03:17.022Z,100.00
2022-12-09T06:05:44.275Z,100.00
2022-12-09T06:08:11.365Z,100.00
2022-12-09T06:10:41.313Z,100.00
2022-12-09T06:13:08.790Z,100.00
2022-12-09T06:15:36.027Z,100.00
2022-12-09T06:18:05.997Z,100.00
2022-12-09T06:21:05.526Z,100.00
2022-12-09T06:23:37.919Z,100.00
2022-12-09T06:26:19.744Z,100.00
2022-12-09T06:28:47.111Z,100.00
2022-12-09T06:31:43.634Z,100.00
2022-12-09T06:34:18.778Z,100.00
2022-12-09T06:36:45.752Z,100.00
2022-12-09T06:39:12.641Z,100.00
2022-12-09T06:41:50.365Z,100.00
2022-12-09T06:44:23.583Z,100.00
2022-12-09T06:46:51.387Z,100.00
2022-12-09T06:49:41.162Z,100.00
2022-12-09T06:55:13.734Z,100.00
2022-12-09T06:57:41.323Z,100.00
2022-12-09T07:00:09.116Z,100.00
2022-12-09T07:02:37.332Z,100.00
2022-12-09T07:05:11.468Z,100.00
2022-12-09T07:07:45.135Z,100.00
2022-12-09T07:10:12.980Z,100.00
2022-12-09T07:12:40.156Z,100.00
2022-12-09T07:15:07.648Z,100.00
2022-12-09T07:17:37.031Z,100.00
2022-12-09T07:20:08.586Z,100.00
2022-12-09T07:22:42.629Z,100.00
2022-12-09T07:25:11.465Z,100.00
2022-12-09T07:27:44.771Z,100.00
2022-12-09T07:30:17.108Z,100.00
2022-12-09T07:32:44.410Z,100.00
2022-12-09T07:35:20.975Z,100.00
2022-12-09T07:38:08.062Z,100.00
2022-12-09T07:40:43.044Z,100.00
2022-12-09T07:43:19.851Z,100.00
2022-12-09T07:45:46.647Z,100.00
2022-12-09T07:48:13.655Z,100.00
2022-12-09T07:50:40.753Z,100.00
2022-12-09T07:53:07.501Z,100.00
2022-12-09T07:55:34.758Z,100.00
2022-12-09T07:58:01.768Z,100.00
2022-12-09T08:00:28.774Z,100.00
2022-12-09T08:02:55.591Z,100.00
2022-12-09T08:05:22.818Z,100.00
2022-12-09T08:07:49.667Z,100.00
2022-12-09T08:10:17.257Z,100.00
2022-12-09T08:12:45.568Z,100.00
2022-12-09T08:15:13.166Z,100.00
2022-12-09T08:17:40.517Z,100.00
2022-12-09T08:20:08.428Z,100.00
2022-12-09T08:22:35.653Z,100.00
2022-12-09T08:25:02.809Z,100.00
2022-12-09T08:27:30.252Z,100.00
2022-12-09T08:29:57.070Z,100.00
2022-12-09T08:32:24.113Z,100.00
2022-12-09T08:34:51.035Z,100.00
2022-12-09T08:37:18.170Z,100.00
2022-12-09T08:39:44.937Z,100.00
2022-12-09T08:42:12.163Z,100.00
2022-12-09T08:44:40.047Z,100.00
2022-12-09T08:47:06.838Z,100.00
2022-12-09T08:49:33.980Z,100.00
2022-12-09T08:52:01.184Z,100.00
2022-12-09T08:54:28.790Z,100.00
2022-12-09T08:56:56.430Z,100.00
2022-12-09T08:59:24.514Z,100.00
2022-12-09T09:01:52.582Z,100.00
2022-12-09T09:04:21.850Z,100.00
2022-12-09T09:06:50.702Z,100.00
2022-12-09T09:09:20.394Z,100.00
2022-12-09T09:11:47.406Z,100.00
2022-12-09T09:14:15.042Z,100.00
2022-12-09T09:16:44.275Z,100.00
2022-12-09T09:19:17.578Z,100.00
2022-12-09T09:21:45.037Z,100.00
2022-12-09T09:24:14.940Z,100.00
2022-12-09T09:26:43.504Z,100.00
2022-12-09T09:29:13.026Z,100.00
2022-12-09T09:31:40.981Z,100.00
2022-12-09T09:34:08.506Z,100.00
2022-12-09T09:36:35.612Z,100.00
2022-12-09T09:39:03.077Z,100.00
2022-12-09T09:41:59.602Z,100.00
2022-12-09T09:44:44.040Z,100.00
2022-12-09T09:47:17.934Z,100.00
2022-12-09T09:49:46.198Z,100.00
2022-12-09T09:52:26.041Z,100.00
2022-12-09T09:55:02.091Z,100.00
2022-12-09T09:57:51.857Z,100.00
2022-12-09T10:00:27.127Z,100.00
2022-12-09T10:03:07.014Z,100.00
2022-12-09T10:05:53.016Z,100.00
2022-12-09T10:08:40.069Z,100.00
2022-12-09T10:11:25.904Z,100.00
2022-12-09T10:14:20.285Z,100.00
2022-12-09T10:17:04.762Z,100.00
2022-12-09T10:19:37.763Z,100.00
2022-12-09T10:22:34.514Z,100.00
2022-12-09T10:25:14.941Z,99.00
2022-12-09T10:27:50.586Z,99.05
2022-12-09T10:30:19.882Z,99.32
2022-12-09T10:32:47.596Z,98.73
2022-12-09T10:35:18.035Z,99.79
2022-12-09T10:37:46.608Z,99.09
2022-12-09T10:40:30.301Z,98.63
2022-12-09T10:43:14.656Z,97.68
2022-12-09T10:48:57.973Z,98.05
2022-12-09T10:51:30.183Z,99.67
2022-12-09T10:54:07.003Z,100.00
2022-12-09T10:56:37.848Z,99.18
2022-12-09T10:59:23.244Z,99.06
2022-12-09T11:01:52.983Z,98.04
2022-12-09T11:04:23.056Z,98.00
2022-12-09T11:06:59.493Z,98.21
2022-12-09T11:09:32.630Z,98.86
2022-12-09T11:12:02.282Z,98.85
2022-12-09T11:14:45.426Z,98.72
2022-12-09T11:17:20.151Z,100.00
2022-12-09T11:19:52.627Z,99.84
2022-12-09T11:22:21.401Z,99.76
2022-12-09T11:24:49.963Z,99.24
2022-12-09T11:27:34.641Z,99.25
2022-12-09T11:30:12.476Z,97.97
2022-12-09T11:33:01.138Z,97.81
2022-12-09T11:35:33.240Z,99.29
2022-12-09T11:38:04.629Z,100.00
2022-12-09T11:40:32.738Z,100.00
2022-12-09T11:42:59.695Z,100.00
2022-12-09T11:45:32.149Z,100.00
2022-12-09T11:48:27.602Z,100.00
2022-12-09T11:50:56.017Z,100.00
2022-12-09T11:53:22.625Z,100.00
2022-12-09T11:55:59.669Z,100.00
2022-12-09T11:58:33.533Z,100.00
2022-12-09T12:01:05.372Z,100.00
2022-12-09T12:03:39.802Z,99.60
2022-12-09T12:06:18.305Z,98.52
2022-12-09T12:08:52.355Z,96.50
2022-12-09T12:11:25.557Z,95.87
2022-12-09T12:14:01.595Z,95.49
2022-12-09T12:16:51.566Z,95.75
2022-12-09T12:19:22.818Z,95.18
2022-12-09T12:22:19.966Z,96.26
2022-12-09T12:25:18.073Z,95.51
2022-12-09T12:28:00.544Z,96.89
2022-12-09T12:30:45.408Z,98.93
2022-12-09T12:34:00.561Z,99.77
2022-12-09T12:36:53.581Z,100.00
2022-12-09T12:39:51.915Z,100.00
2022-12-09T12:43:11.448Z,100.00
2022-12-09T12:46:05.066Z,100.00
2022-12-09T12:48:56.298Z,100.00
2022-12-09T12:51:29.078Z,100.00
2022-12-09T12:54:16.130Z,100.00
2022-12-09T12:56:54.206Z,100.00
2022-12-09T12:59:26.328Z,100.00
2022-12-09T13:02:00.983Z,100.00
2022-12-09T13:04:44.570Z,100.00
2022-12-09T13:07:36.882Z,100.00
2022-12-09T13:10:16.009Z,100.00
2022-12-09T13:13:01.164Z,100.00
2022-12-09T13:15:33.643Z,100.00
2022-12-09T13:18:19.462Z,100.00
2022-12-09T13:20:50.654Z,100.00
2022-12-09T13:23:42.304Z,100.00
2022-12-09T13:26:29.876Z,100.00
2022-12-09T13:29:38.017Z,100.00
2022-12-09T13:32:32.531Z,100.00
2022-12-09T13:35:13.104Z,100.00
2022-12-09T13:38:07.905Z,100.00
2022-12-09T13:40:38.853Z,100.00
2022-12-09T13:43:12.268Z,100.00
2022-12-09T13:46:04.173Z,100.00
2022-12-09T13:48:30.827Z,100.00
2022-12-09T13:53:58.447Z,100.00
2022-12-09T13:56:37.078Z,100.00
2022-12-09T13:59:46.251Z,100.00
2022-12-09T14:02:34.550Z,100.00
2022-12-09T14:05:21.071Z,100.00
2022-12-09T14:07:54.214Z,100.00
2022-12-09T14:10:53.422Z,100.00
2022-12-09T14:13:31.192Z,100.00
2022-12-09T14:16:10.269Z,100.00
2022-12-09T14:18:41.967Z,100.00
2022-12-09T14:21:19.895Z,100.00
2022-12-09T14:24:27.201Z,100.00
2022-12-09T14:27:20.746Z,100.00
2022-12-09T14:29:51.006Z,100.00
2022-12-09T14:32:37.894Z,100.00
2022-12-09T14:35:12.452Z,100.00
2022-12-09T14:38:01.476Z,100.00
2022-12-09T14:41:08.953Z,100.00
2022-12-09T14:44:03.601Z,100.00
2022-12-09T14:46:34.093Z,100.00
2022-12-09T14:49:17.861Z,100.00
2022-12-09T14:52:01.560Z,100.00
2022-12-09T14:54:37.444Z,100.00
2022-12-09T14:57:16.009Z,100.00
2022-12-09T14:59:50.295Z,100.00
2022-12-09T15:03:22.976Z,100.00
2022-12-09T15:05:38.595Z,100.00
2022-12-09T15:08:10.925Z,100.00
2022-12-09T15:10:46.089Z,100.00
2022-12-09T15:13:19.864Z,100.00
2022-12-09T15:15:46.760Z,100.00
2022-12-09T15:18:20.038Z,100.00
2022-12-09T15:20:58.528Z,100.00
2022-12-09T15:24:01.256Z,100.00
2022-12-09T15:26:32.782Z,100.00
2022-12-09T15:29:19.118Z,100.00
2022-12-09T15:31:54.889Z,100.00
2022-12-09T15:34:27.338Z,100.00
2022-12-09T15:37:18.155Z,100.00
2022-12-09T15:39:59.968Z,100.00
2022-12-09T15:42:29.602Z,100.00
2022-12-09T15:45:01.462Z,100.00
2022-12-09T15:47:58.677Z,100.00
2022-12-09T15:50:30.555Z,100.00
2022-12-09T15:53:25.328Z,100.00
2022-12-09T15:55:58.818Z,100.00
2022-12-09T15:58:34.219Z,100.00
2022-12-09T16:01:02.694Z,100.00
2022-12-09T16:03:33.207Z,100.00
2022-12-09T16:06:02.514Z,100.00
2022-12-09T16:08:35.364Z,100.00
2022-12-09T16:11:02.374Z,100.00
2022-12-09T16:13:30.225Z,100.00
2022-12-09T16:15:58.818Z,100.00
2022-12-09T16:18:31.182Z,100.00
2022-12-09T16:21:12.955Z,100.00
2022-12-09T16:23:39.920Z,100.00
2022-12-09T16:26:07.759Z,100.00
2022-12-09T16:28:35.051Z,100.00
2022-12-09T16:31:15.441Z,100.00
2022-12-09T16:33:48.030Z,100.00
2022-12-09T16:36:19.363Z,100.00
2022-12-09T16:39:06.900Z,100.00
2022-12-09T16:41:49.711Z,100.00
2022-12-09T16:44:33.805Z,100.00
2022-12-09T16:47:19.451Z,100.00
2022-12-09T16:49:47.719Z,100.00
2022-12-09T16:52:18.427Z,100.00
2022-12-09T16:54:47.096Z,100.00
2022-12-09T16:57:17.578Z,100.00
2022-12-09T16:59:45.536Z,100.00
2022-12-09T17:02:32.999Z,100.00
2022-12-09T17:05:00.632Z,100.00
2022-12-09T17:07:27.633Z,100.00
2022-12-09T17:09:54.395Z,100.00
2022-12-09T17:12:21.099Z,100.00
2022-12-09T17:14:47.916Z,100.00
2022-12-09T17:17:14.637Z,100.00
2022-12-09T17:19:42.357Z,100.00
2022-12-09T17:22:11.743Z,100.00
2022-12-09T17:24:39.845Z,100.00
2022-12-09T17:27:07.641Z,100.00
2022-12-09T17:29:34.291Z,100.00
2022-12-09T17:32:04.947Z,100.00
2022-12-09T17:34:46.337Z,100.00
2022-12-09T17:37:21.017Z,100.00
2022-12-09T17:40:11.035Z,100.00
2022-12-09T17:42:37.827Z,100.00
2022-12-09T17:45:18.898Z,100.00
2022-12-09T17:47:45.621Z,100.00
2022-12-09T17:50:22.563Z,100.00
2022-12-09T17:52:49.253Z,100.00
2022-12-09T17:55:16.043Z,100.00
2022-12-09T17:57:42.692Z,100.00
2022-12-09T18:00:10.958Z,100.00
2022-12-09T18:02:38.171Z,100.00
2022-12-09T18:05:05.577Z,100.00
2022-12-09T18:07:32.357Z,100.00
2022-12-09T18:09:59.014Z,100.00
2022-12-09T18:12:25.712Z,100.00
2022-12-09T18:14:52.445Z,100.00
2022-12-09T18:17:19.153Z,100.00
2022-12-09T18:19:45.916Z,100.00
2022-12-09T18:22:12.633Z,100.00
2022-12-09T18:24:39.297Z,100.00
2022-12-09T18:27:06.078Z,100.00
2022-12-09T18:29:32.970Z,100.00
2022-12-09T18:31:59.870Z,100.00
2022-12-09T18:34:28.300Z,100.00
2022-12-09T18:36:55.183Z,100.00
2022-12-09T18:39:22.304Z,100.00
2022-12-09T18:41:49.190Z,100.00
2022-12-09T18:44:16.195Z,100.00
2022-12-09T18:46:46.551Z,100.00
2022-12-09T18:49:16.560Z,100.00
2022-12-09T18:51:45.190Z,100.00
2022-12-09T18:54:18.178Z,100.00
2022-12-09T18:56:48.118Z,100.00
2022-12-09T18:59:14.759Z,100.00
2022-12-09T19:01:44.688Z,100.00
2022-12-09T19:04:14.881Z,100.00
2022-12-09T19:06:44.364Z,100.00
2022-12-09T19:09:18.495Z,100.00
2022-12-09T19:11:46.437Z,100.00
2022-12-09T19:14:14.556Z,100.00
2022-12-09T19:16:42.155Z,100.00
2022-12-09T19:19:11.046Z,100.00
2022-12-09T19:21:38.628Z,100.00
2022-12-09T19:24:05.887Z,100.00
2022-12-09T19:26:34.550Z,100.00
2022-12-09T19:29:04.942Z,100.00
2022-12-09T19:31:36.682Z,100.00
2022-12-09T19:34:13.141Z,100.00
2022-12-09T19:36:39.983Z,100.00
2022-12-09T19:39:08.372Z,100.00
2022-12-09T19:41:35.891Z,100.00
2022-12-09T19:44:04.140Z,100.00
2022-12-09T19:46:31.346Z,100.00
2022-12-09T19:48:58.724Z,100.00
2022-12-09T19:51:27.111Z,100.00
2022-12-09T19:53:55.537Z,100.00
2022-12-09T19:56:22.603Z,100.00
2022-12-09T19:58:49.837Z,100.00
2022-12-09T20:01:25.037Z,100.00
2022-12-09T20:03:56.964Z,100.00
2022-12-09T20:06:24.351Z,100.00
2022-12-09T20:08:51.061Z,100.00
2022-12-09T20:11:20.704Z,100.00
2022-12-09T20:13:47.870Z,100.00
2022-12-09T20:16:18.252Z,100.00
2022-12-09T20:18:48.713Z,100.00
2022-12-09T20:21:17.774Z,100.00
2022-12-09T20:23:45.771Z,100.00
2022-12-09T20:26:15.639Z,100.00
2022-12-09T20:28:44.388Z,100.00
2022-12-09T20:31:14.179Z,100.00
2022-12-09T20:33:41.711Z,100.00
2022-12-09T20:36:12.874Z,100.00
2022-12-09T20:38:40.126Z,100.00
2022-12-09T20:41:10.014Z,100.00
2022-12-09T20:43:40.855Z,100.00
2022-12-09T20:46:11.865Z,100.00
2022-12-09T20:48:39.709Z,100.00
2022-12-09T20:51:08.718Z,100.00
2022-12-09T20:53:36.606Z,100.00
2022-12-09T20:56:04.549Z,100.00
2022-12-09T20:58:31.631Z,100.00
2022-12-09T21:01:05.553Z,100.00
2022-12-09T21:03:32.553Z,100.00
2022-12-09T21:05:59.521Z,100.00
2022-12-09T21:08:31.287Z,100.00
2022-12-09T21:11:07.488Z,100.00
2022-12-09T21:13:37.985Z,100.00
2022-12-09T21:16:07.800Z,100.00
2022-12-09T21:18:36.511Z,100.00
2022-12-09T21:21:04.761Z,100.00
2022-12-09T21:23:34.369Z,100.00
2022-12-09T21:26:05.582Z,100.00
2022-12-09T21:28:32.787Z,100.00
2022-12-09T21:31:05.744Z,100.00
2022-12-09T21:33:32.476Z,100.00
2022-12-09T21:35:59.168Z,100.00
2022-12-09T21:38:25.834Z,100.00
2022-12-09T21:40:52.651Z,100.00
2022-12-09T21:43:19.370Z,100.00
2022-12-09T21:45:46.072Z,100.00
2022-12-09T21:48:12.843Z,100.00
2022-12-09T21:50:40.110Z,100.00
2022-12-09T21:53:07.008Z,100.00
2022-12-09T21:55:35.941Z,100.00
2022-12-09T21:58:02.613Z,100.00
2022-12-09T22:00:29.769Z,100.00
2022-12-09T22:02:56.381Z,100.00
2022-12-09T22:05:23.028Z,100.00
2022-12-09T22:07:50.059Z,100.00
2022-12-09T22:10:16.823Z,100.00
2022-12-09T22:12:43.952Z,100.00
2022-12-09T22:15:11.052Z,100.00
2022-12-09T22:17:38.145Z,100.00
2022-12-09T22:20:48.876Z,100.00
2022-12-09T22:22:54.369Z,100.00
2022-12-09T22:25:21.056Z,100.00
2022-12-09T22:27:47.677Z,100.00
2022-12-09T22:30:14.416Z,100.00
2022-12-09T22:32:44.454Z,100.00
2022-12-09T22:35:14.618Z,100.00
2022-12-09T22:37:43.836Z,100.00
2022-12-09T22:40:11.372Z,100.00
2022-12-09T22:42:38.118Z,100.00
2022-12-09T22:45:14.843Z,100.00
2022-12-09T22:47:47.908Z,100.00
2022-12-09T22:50:14.611Z,100.00
2022-12-09T22:52:41.263Z,100.00
2022-12-09T22:55:12.752Z,100.00
2022-12-09T22:57:39.581Z,100.00
2022-12-09T23:00:20.280Z,100.00
2022-12-09T23:02:48.237Z,100.00
2022-12-09T23:05:15.431Z,100.00
2022-12-09T23:07:43.305Z,100.00
2022-12-09T23:10:17.391Z,100.00
2022-12-09T23:12:44.063Z,100.00
2022-12-09T23:15:11.015Z,100.00
2022-12-09T23:17:43.947Z,100.00
2022-12-09T23:20:17.287Z,100.00
2022-12-09T23:22:45.612Z,100.00
2022-12-09T23:25:12.267Z,100.00
2022-12-09T23:27:48.188Z,100.00
2022-12-09T23:30:14.824Z,100.00
2022-12-09T23:32:41.576Z,100.00
2022-12-09T23:35:18.093Z,100.00
2022-12-09T23:38:14.705Z,100.00
2022-12-09T23:40:50.451Z,100.00
2022-12-09T23:43:17.583Z,100.00
2022-12-09T23:45:45.848Z,100.00
2022-12-09T23:48:12.585Z,100.00
2022-12-09T23:50:44.781Z,100.00
2022-12-09T23:53:13.707Z,100.00
2022-12-09T23:55:42.980Z,100.00
2022-12-09T23:58:09.922Z,100.00
